Aérodrome :
LOGIN :

S'inscrire | Disclaimer

   EN    FR    IT 

 










Légende :    VFR   VFR Marginal   IFR   IFR Intensif   IFR Très Intensif
Visi : 
Plafond : 
>= 8 km
>= 3000ft
5 à 8 km
1000 à 3000 ft
1500m à 5 km
500 à 1000 ft
800 à 1500m
200 à 500 ft
< 800m
< 200 ft
Symboles :   Orages  Brouillard  Fortes neiges  Fortes précipitations  Vent > 20 kt
SIGMETs :   Divers  Orages  Givrage  Turbulence  Onde Orograph.  Cendres Volcan.






- Altitude de l'aérodrome : 138 ft
- Code IATA : BIO


LEBB - Bilbao

DERNIER METAR :
  • 021830Z 31007KT 9999 FEW028 11/06 Q1018 NOSIG

METARs EXPIRÉS :
  • 021800Z 30009KT 9999 FEW028 12/06 Q1018 NOSIG
  • 021730Z 31008KT 9999 FEW025 SCT065 13/07 Q1018 NOSIG
  • 021700Z 31009KT 280V340 9999 FEW025 SCT065 13/07 Q1017 NOSIG
  • 021630Z 31010KT 9999 FEW025 BKN065 13/07 Q1017 NOSIG
  • 021600Z 29011KT 9999 FEW025 BKN065 13/08 Q1017 NOSIG

TAF TAF LEBB
Valide du 02 à 18h jusqu'au 03 à 18h UTC


021700Z 0218/0318 31009KT 9999 SCT020 SCT040 TX15/0315Z TN04/0306Z
BECMG 0218/0220 VRB05KT
TEMPO 0312/0318 07010KT



MET'MAP, la Météo Aéronautique d'un coup d'oeil ! - Copyright ORBIFLY Décembre 2007 - Disclaimer

ORBIFLY MET'MAP TEAM :

Programmation & Développement : Alexandra Zaïnal
Sur une idée originale de : Baudouin d'Aumeries
Assistance à la programmation : Marc-Olivier Méhu
Soutien technique & logistique : Manuel Goepfert

Contact : metmap@orbifly.com




SOURCES & CREDITS :

   NOAA